Time;durP1;ratioP1;P1;durP2;ratioP2;P2;SDS_P1;SDS_P2;PMS_P1;PMS_P2;Temp;Humidity;BMP_temperature;BMP_pressure;BME280_temperature;BME280_humidity;BME280_pressure;Samples;Min_cycle;Max_cycle;Signal;HPM_P1;HPM_P2
2022/10/05 00:01:44;;;;;;;8.15;7.35;;;;;;;10.16;64.82;95809.88;5032286;28;20182;-69
2022/10/05 00:04:20;;;;;;;9.40;7.70;;;;;;;10.10;64.72;95813.03;5031946;28;20277;-69
2022/10/05 00:07:11;;;;;;;9.63;7.57;;;;;;;10.04;64.83;95813.53;5031354;28;20229;-66
2022/10/05 00:09:37;;;;;;;9.10;7.50;;;;;;;10.07;64.69;95807.19;5030586;28;20272;-66
2022/10/05 00:12:18;;;;;;;7.63;6.93;;;;;;;9.98;64.90;95811.44;5030681;28;20210;-66
2022/10/05 00:14:45;;;;;;;7.63;6.93;;;;;;;9.96;65.09;95797.59;5028350;28;20194;-66
2022/10/05 00:17:19;;;;;;;8.05;7.25;;;;;;;9.94;65.11;95791.63;5036103;28;20189;-66
2022/10/05 00:19:50;;;;;;;8.80;7.35;;;;;;;9.89;65.74;95804.31;5031369;28;20288;-66
2022/10/05 00:22:17;;;;;;;8.82;7.18;;;;;;;9.88;65.54;95800.84;5024778;28;20220;-66
2022/10/05 00:24:44;;;;;;;8.27;7.63;;;;;;;9.83;65.70;95799.56;5030547;28;20259;-66
2022/10/05 00:27:36;;;;;;;9.43;8.53;;;;;;;9.84;65.68;95796.84;5036228;28;20552;-67
2022/10/05 00:30:12;;;;;;;8.55;7.63;;;;;;;9.85;65.77;95797.66;4994164;28;20464;-67
2022/10/05 00:32:37;;;;;;;9.38;8.40;;;;;;;9.74;65.76;95795.94;4997820;28;20335;-67
2022/10/05 00:35:03;;;;;;;9.45;8.55;;;;;;;9.53;66.62;95800.31;5013392;28;20206;-67
2022/10/05 00:37:29;;;;;;;9.55;8.30;;;;;;;9.66;66.23;95808.88;4999657;28;20190;-68
2022/10/05 00:39:54;;;;;;;9.23;8.33;;;;;;;9.53;66.11;95801.16;4990442;28;20287;-67
2022/10/05 00:42:23;;;;;;;9.30;8.37;;;;;;;9.61;66.82;95805.78;4993759;28;20205;-66
2022/10/05 00:45:01;;;;;;;11.07;7.47;;;;;;;9.55;66.73;95807.13;4993689;28;20259;-65
2022/10/05 00:47:39;;;;;;;9.73;8.40;;;;;;;9.63;66.45;95799.44;4997186;28;20234;-66
2022/10/05 00:50:34;;;;;;;8.97;7.80;;;;;;;9.59;66.11;95802.44;4996038;28;20285;-66
2022/10/05 00:53:42;;;;;;;8.50;7.63;;;;;;;9.54;66.61;95805.44;4988043;28;20239;-66
2022/10/05 00:56:24;;;;;;;10.87;8.60;;;;;;;9.37;67.02;95809.44;4901041;29;20208;-66
2022/10/05 00:59:10;;;;;;;10.20;8.37;;;;;;;9.39;67.19;95814.59;4913013;29;20210;-66
2022/10/05 01:01:46;;;;;;;10.10;9.07;;;;;;;9.38;67.10;95805.03;4904797;29;20202;-65
2022/10/05 01:04:28;;;;;;;10.47;9.00;;;;;;;9.47;67.02;95820.03;4898915;29;20206;-66
2022/10/05 01:07:02;;;;;;;9.50;8.60;;;;;;;9.39;66.58;95817.22;4919931;29;20216;-65
2022/10/05 01:09:30;;;;;;;9.80;8.87;;;;;;;9.27;66.85;95827.75;4917953;29;20197;-66
2022/10/05 01:12:49;;;;;;;9.50;8.67;;;;;;;8.86;68.17;95838.09;4932969;29;20226;-67
2022/10/05 01:15:21;;;;;;;9.93;8.97;;;;;;;9.09;67.71;95828.38;4954796;28;20224;-67
2022/10/05 01:18:02;;;;;;;9.07;8.17;;;;;;;9.33;66.81;95830.81;4955574;28;20209;-66
2022/10/05 01:20:56;;;;;;;9.87;8.60;;;;;;;9.36;66.79;95835.84;4921875;29;20252;-67
2022/10/05 01:23:53;;;;;;;9.87;8.87;;;;;;;9.27;66.90;95840.88;4919089;29;20209;-67
2022/10/05 01:26:37;;;;;;;9.77;8.37;;;;;;;9.19;66.96;95831.94;4917361;29;20292;-67
2022/10/05 01:29:14;;;;;;;9.43;8.53;;;;;;;9.25;67.20;95841.97;4916336;28;20225;-68
2022/10/05 01:32:08;;;;;;;9.87;8.87;;;;;;;9.16;67.23;95842.69;4996607;28;20206;-67
2022/10/05 01:34:34;;;;;;;9.43;8.50;;;;;;;9.05;67.72;95838.28;4898290;29;20211;-67
2022/10/05 01:37:26;;;;;;;9.60;8.70;;;;;;;9.08;67.72;95853.78;4897488;29;20202;-67
2022/10/05 01:39:57;;;;;;;9.63;8.50;;;;;;;9.13;67.71;95859.50;4899434;29;20205;-66
2022/10/05 01:42:34;;;;;;;9.67;8.67;;;;;;;9.21;67.40;95862.34;4912631;29;20198;-66
2022/10/05 01:45:00;;;;;;;9.63;8.73;;;;;;;9.11;67.64;95864.03;4910392;29;20202;-66
2022/10/05 01:47:47;;;;;;;9.00;8.10;;;;;;;9.03;68.01;95871.66;4910347;29;20266;-66
2022/10/05 01:50:36;;;;;;;9.73;7.90;;;;;;;9.10;67.67;95872.88;4880531;29;20202;-67
2022/10/05 01:53:27;;;;;;;7.63;6.80;;;;;;;9.18;67.37;95878.34;4896712;29;20229;-66
2022/10/05 01:56:28;;;;;;;7.30;6.70;;;;;;;9.09;67.45;95875.59;4860023;29;20303;-67
2022/10/05 01:58:56;;;;;;;9.43;7.10;;;;;;;9.11;67.36;95886.81;4838334;29;20261;-66
2022/10/05 02:01:35;;;;;;;7.60;6.70;;;;;;;9.03;67.48;95887.41;4839594;29;20213;-66
2022/10/05 02:04:09;;;;;;;7.93;7.13;;;;;;;8.97;67.82;95883.47;4838703;29;20204;-66
2022/10/05 02:06:42;;;;;;;7.43;6.80;;;;;;;8.91;67.90;95891.00;4823399;29;20280;-66
2022/10/05 02:09:18;;;;;;;7.73;6.93;;;;;;;8.76;68.56;95883.38;4839068;29;20279;-67
2022/10/05 02:11:51;;;;;;;8.60;6.53;;;;;;;9.04;67.51;95884.69;4879001;29;20232;-67
2022/10/05 02:14:29;;;;;;;7.90;7.10;;;;;;;8.94;67.62;95888.16;4917159;29;20213;-67
2022/10/05 02:17:00;;;;;;;7.57;6.97;;;;;;;8.82;68.18;95890.78;4918361;29;20198;-68
2022/10/05 02:19:47;;;;;;;8.47;7.67;;;;;;;8.78;68.67;95884.09;4920093;29;20236;-68
2022/10/05 02:22:25;;;;;;;8.73;7.83;;;;;;;8.62;68.76;95894.09;4919856;29;20211;-69
2022/10/05 02:24:56;;;;;;;8.10;7.40;;;;;;;8.61;69.03;95889.81;4919369;29;20193;-68
2022/10/05 02:27:27;;;;;;;8.47;7.67;;;;;;;8.52;69.03;95891.34;4920270;29;20236;-67
2022/10/05 02:29:58;;;;;;;8.00;7.20;;;;;;;8.41;70.48;95886.09;4920768;29;20305;-66
2022/10/05 02:32:28;;;;;;;9.43;7.43;;;;;;;8.53;69.49;95889.59;4919537;28;20263;-67
2022/10/05 02:35:00;;;;;;;10.20;7.40;;;;;;;8.55;69.43;95898.13;4955608;28;20192;-68
2022/10/05 02:37:34;;;;;;;8.13;7.33;;;;;;;8.66;69.17;95903.41;5026863;28;20194;-67
2022/10/05 02:40:11;;;;;;;8.43;7.50;;;;;;;8.54;69.42;95893.84;5030526;28;20243;-66
2022/10/05 02:42:57;;;;;;;8.23;7.53;;;;;;;8.48;69.39;95889.09;5032755;28;20190;-66
2022/10/05 02:45:47;;;;;;;11.20;7.37;;;;;;;8.44;69.69;95890.28;5032482;28;20196;-67
2022/10/05 02:48:54;;;;;;;10.87;8.43;;;;;;;8.42;70.21;95889.53;5035569;28;20195;-67
2022/10/05 02:51:24;;;;;;;9.43;7.83;;;;;;;8.35;69.98;95892.59;5023054;28;20197;-67
2022/10/05 02:53:50;;;;;;;11.73;8.83;;;;;;;8.31;69.88;95899.06;5030185;28;20229;-68
2022/10/05 02:56:31;;;;;;;9.67;8.40;;;;;;;8.19;70.45;95886.88;5030808;28;20204;-67
2022/10/05 02:59:14;;;;;;;9.90;9.03;;;;;;;8.20;70.39;95891.13;5023834;28;20296;-67
2022/10/05 03:02:23;;;;;;;10.43;8.77;;;;;;;8.42;69.80;95886.91;5034449;28;20228;-67
2022/10/05 03:05:12;;;;;;;10.23;9.33;;;;;;;8.54;69.28;95894.69;5025190;28;20271;-67
2022/10/05 03:07:59;;;;;;;9.40;8.17;;;;;;;8.37;69.62;95887.25;5030793;28;20186;-67
2022/10/05 03:10:36;;;;;;;10.37;8.23;;;;;;;8.32;69.84;95905.13;5025736;28;20288;-67
2022/10/05 03:13:12;;;;;;;11.30;8.63;;;;;;;8.19;70.29;95905.19;5026813;28;20221;-67
2022/10/05 03:15:47;;;;;;;12.27;9.00;;;;;;;8.21;70.06;95894.63;5032348;28;20276;-67
2022/10/05 03:18:29;;;;;;;11.47;8.97;;;;;;;8.31;70.29;95904.28;5030727;28;20194;-67
2022/10/05 03:21:14;;;;;;;11.07;8.83;;;;;;;8.19;70.65;95907.81;5029891;28;20189;-67
2022/10/05 03:23:39;;;;;;;13.00;8.43;;;;;;;8.10;70.57;95898.00;5032652;28;20273;-67
2022/10/05 03:26:21;;;;;;;8.83;7.90;;;;;;;8.16;70.40;95897.56;5028434;28;20585;-67
2022/10/05 03:29:02;;;;;;;11.90;8.47;;;;;;;8.23;70.47;95898.75;5030160;28;20198;-67
2022/10/05 03:31:27;;;;;;;10.30;8.00;;;;;;;8.26;70.42;95918.66;5031381;28;20202;-67
2022/10/05 03:34:16;;;;;;;10.33;8.23;;;;;;;8.15;70.70;95922.09;5035001;28;20191;-67
2022/10/05 03:36:51;;;;;;;9.03;8.13;;;;;;;8.15;70.87;95914.22;5033595;28;20187;-67
2022/10/05 03:39:20;;;;;;;9.93;8.30;;;;;;;8.12;70.94;95925.75;5037588;28;20211;-68
2022/10/05 03:41:45;;;;;;;10.03;8.20;;;;;;;8.09;70.91;95931.25;5033758;28;20186;-68
2022/10/05 03:44:49;;;;;;;12.10;8.17;;;;;;;8.18;70.50;95935.81;5033814;28;20194;-67
2022/10/05 03:47:26;;;;;;;9.17;8.13;;;;;;;7.86;71.67;95940.81;4986815;28;20206;-67
2022/10/05 03:50:23;;;;;;;8.67;7.43;;;;;;;7.67;72.45;95946.56;4996318;28;20194;-67
2022/10/05 03:53:13;;;;;;;8.43;7.67;;;;;;;7.07;75.14;95944.72;4990971;28;20242;-67
2022/10/05 03:55:54;;;;;;;9.00;8.10;;;;;;;7.45;74.61;95952.47;4992295;28;20213;-67
2022/10/05 03:58:39;;;;;;;9.20;8.37;;;;;;;7.68;73.63;95960.47;4991669;28;20202;-68
2022/10/05 04:01:10;;;;;;;9.27;8.30;;;;;;;7.82;72.27;95962.09;5007695;28;20215;-67
2022/10/05 04:03:48;;;;;;;8.33;7.53;;;;;;;7.83;72.11;95972.47;4991322;28;20202;-67
2022/10/05 04:06:27;;;;;;;9.70;7.40;;;;;;;7.95;71.08;95971.56;5011817;28;20190;-68
2022/10/05 04:09:00;;;;;;;9.87;8.60;;;;;;;8.11;70.49;95966.03;4987985;28;20191;-68
2022/10/05 04:11:38;;;;;;;9.97;8.10;;;;;;;7.89;71.03;95965.94;5008539;28;20199;-69
2022/10/05 04:14:14;;;;;;;9.20;8.40;;;;;;;8.07;70.23;95963.72;4993442;28;20190;-68
2022/10/05 04:16:57;;;;;;;8.63;7.83;;;;;;;7.98;70.19;95962.63;4993820;28;20209;-69
2022/10/05 04:19:51;;;;;;;10.47;9.40;;;;;;;8.08;70.01;95971.50;5007191;28;20198;-68
2022/10/05 04:22:39;;;;;;;9.70;8.90;;;;;;;8.06;69.91;95970.75;4989714;28;20237;-69
2022/10/05 04:25:04;;;;;;;9.23;8.43;;;;;;;8.00;70.24;95965.97;5029549;28;20199;-69
2022/10/05 04:27:38;;;;;;;9.10;7.67;;;;;;;7.81;70.67;95969.13;5027559;28;20197;-68
2022/10/05 04:30:17;;;;;;;8.40;7.57;;;;;;;7.86;70.32;95972.25;5028585;28;20187;-68
2022/10/05 04:32:56;;;;;;;8.00;7.20;;;;;;;7.77;71.12;95972.06;5030787;28;20216;-69
2022/10/05 04:35:52;;;;;;;9.87;7.17;;;;;;;7.88;71.05;95974.72;5028985;28;20193;-70
2022/10/05 04:38:59;;;;;;;13.10;8.20;;;;;;;7.87;70.81;95979.13;5028288;28;20248;-69
2022/10/05 04:41:43;;;;;;;13.07;8.83;;;;;;;7.82;71.19;95986.47;4997729;28;20224;-70
2022/10/05 04:44:39;;;;;;;10.23;8.50;;;;;;;7.87;71.00;95978.31;4995481;28;20191;-70
2022/10/05 04:47:16;;;;;;;11.17;8.60;;;;;;;7.88;70.80;95991.25;4985713;28;20191;-70
2022/10/05 04:50:03;;;;;;;8.97;8.10;;;;;;;7.88;71.13;95996.50;4986389;28;20197;-68
2022/10/05 04:52:46;;;;;;;7.80;7.20;;;;;;;8.03;70.67;95999.81;4988454;28;20231;-69
2022/10/05 04:55:31;;;;;;;8.43;7.47;;;;;;;8.05;70.67;96007.56;5009437;28;20209;-67
2022/10/05 04:58:28;;;;;;;9.63;8.30;;;;;;;8.02;70.51;96007.75;5001537;28;20210;-68
2022/10/05 05:01:05;;;;;;;9.67;8.67;;;;;;;8.11;69.98;95992.22;5010950;28;20211;-67
2022/10/05 05:03:43;;;;;;;8.97;8.07;;;;;;;8.06;69.72;95999.56;5008991;28;20229;-68
2022/10/05 05:06:23;;;;;;;9.20;8.40;;;;;;;8.08;70.26;96009.97;5007616;28;20194;-68
2022/10/05 05:09:00;;;;;;;8.97;8.17;;;;;;;7.94;70.43;96000.50;4985379;28;20188;-68
2022/10/05 05:11:33;;;;;;;11.13;8.07;;;;;;;7.83;71.22;95998.66;4998027;28;20207;-67
2022/10/05 05:14:12;;;;;;;10.20;8.23;;;;;;;7.93;71.83;95999.63;4987547;28;20221;-67
2022/10/05 05:16:44;;;;;;;11.90;8.87;;;;;;;8.10;71.05;96000.19;4984083;28;20248;-67
2022/10/05 05:19:12;;;;;;;9.03;8.13;;;;;;;8.19;70.54;96007.38;5006168;28;20291;-67
2022/10/05 05:21:56;;;;;;;10.13;8.63;;;;;;;8.13;70.93;96006.03;5010391;28;20202;-68
2022/10/05 05:24:51;;;;;;;10.87;9.70;;;;;;;8.23;70.13;95998.31;5006456;28;20187;-67
2022/10/05 05:27:35;;;;;;;11.67;9.70;;;;;;;8.20;70.60;96011.66;4988243;28;20199;-68
2022/10/05 05:30:00;;;;;;;10.57;9.60;;;;;;;8.32;70.41;96009.94;5001501;28;20273;-69
2022/10/05 05:33:04;;;;;;;10.83;9.10;;;;;;;8.31;70.16;96005.63;4991296;28;20310;-70
2022/10/05 05:35:41;;;;;;;10.57;8.93;;;;;;;8.37;70.05;96015.69;4915081;29;20228;-70
2022/10/05 05:38:25;;;;;;;11.87;9.90;;;;;;;8.26;70.39;96019.09;4933585;29;20292;-68
2022/10/05 05:41:21;;;;;;;11.27;9.07;;;;;;;8.35;70.74;96015.78;4935344;29;20200;-71
2022/10/05 05:43:59;;;;;;;10.50;8.87;;;;;;;8.31;70.66;96014.34;4931871;29;20213;-68
2022/10/05 05:46:28;;;;;;;9.27;8.37;;;;;;;8.33;71.21;96012.44;4936963;29;20240;-69
2022/10/05 05:48:56;;;;;;;15.07;8.70;;;;;;;8.46;70.80;96022.88;4929371;29;20194;-67
2022/10/05 05:51:34;;;;;;;11.37;8.40;;;;;;;8.67;69.96;96009.94;4929005;29;20250;-68
2022/10/05 05:54:14;;;;;;;13.53;9.00;;;;;;;8.89;69.56;96024.06;4926914;29;20233;-66
2022/10/05 05:56:48;;;;;;;9.53;8.57;;;;;;;8.92;69.20;96019.41;4916527;29;20201;-66
2022/10/05 06:00:04;;;;;;;11.73;8.93;;;;;;;9.12;69.01;96030.19;4927401;29;20206;-66
2022/10/05 06:02:39;;;;;;;12.90;8.53;;;;;;;8.98;70.02;96039.94;4895475;29;20203;-66
2022/10/05 06:05:16;;;;;;;15.33;9.00;;;;;;;9.07;70.13;96035.78;4859485;29;20310;-68
2022/10/05 06:07:42;;;;;;;14.63;9.90;;;;;;;9.13;69.45;96032.66;4874178;29;20223;-66
2022/10/05 06:10:40;;;;;;;13.70;10.40;;;;;;;9.32;69.30;96037.34;4852752;29;20342;-66
2022/10/05 06:13:15;;;;;;;15.57;11.30;;;;;;;9.40;68.83;96039.38;4891760;29;20229;-66
2022/10/05 06:15:55;;;;;;;12.70;10.43;;;;;;;9.49;68.63;96041.28;4914109;29;20291;-65
2022/10/05 06:18:22;;;;;;;15.17;9.63;;;;;;;9.57;68.24;96043.28;4909249;29;20200;-65
2022/10/05 06:20:54;;;;;;;9.90;8.80;;;;;;;9.71;67.67;96049.13;4915087;29;20206;-65
2022/10/05 06:23:38;;;;;;;12.90;9.80;;;;;;;9.67;68.26;96054.75;4904836;29;20189;-66
2022/10/05 06:26:33;;;;;;;12.63;8.90;;;;;;;9.77;67.88;96060.94;4908958;29;20193;-65
2022/10/05 06:29:07;;;;;;;13.23;10.27;;;;;;;9.87;67.79;96059.28;4907338;29;20252;-65
2022/10/05 06:31:58;;;;;;;18.42;10.65;;;;;;;9.96;67.30;96062.94;4910135;29;20385;-70
2022/10/05 06:34:42;;;;;;;16.63;11.23;;;;;;;9.79;67.69;96072.19;4911544;29;20194;-68
2022/10/05 06:37:15;;;;;;;15.43;12.30;;;;;;;9.90;67.21;96073.94;4913755;29;20190;-67
2022/10/05 06:39:53;;;;;;;18.38;13.07;;;;;;;9.98;66.84;96079.44;4973338;28;20195;-64
2022/10/05 06:42:39;;;;;;;14.98;13.65;;;;;;;10.12;66.54;96083.59;5017843;28;20222;-66
2022/10/05 06:45:18;;;;;;;20.00;12.63;;;;;;;10.04;66.64;96078.09;5027199;28;20206;-67
2022/10/05 06:47:57;;;;;;;14.38;12.88;;;;;;;10.07;66.79;96088.38;5012529;28;21562;-66
2022/10/05 06:50:32;;;;;;;15.98;11.75;;;;;;;10.20;66.17;96094.31;4993797;28;20321;-66
2022/10/05 06:53:14;;;;;;;15.73;10.93;;;;;;;10.33;65.78;96096.84;4994674;28;20228;-68
2022/10/05 06:55:49;;;;;;;12.60;11.30;;;;;;;10.41;65.97;96098.84;5028265;28;20255;-67
2022/10/05 06:58:59;;;;;;;12.93;11.52;;;;;;;10.47;65.57;96104.44;4993269;28;20202;-67
2022/10/05 07:01:46;;;;;;;12.93;11.63;;;;;;;10.65;65.05;96103.91;5022583;28;20207;-65
2022/10/05 07:04:22;;;;;;;15.95;12.27;;;;;;;10.66;65.25;96108.19;5030282;28;20209;-65
2022/10/05 07:07:04;;;;;;;16.13;11.35;;;;;;;10.73;65.40;96089.16;4990255;28;20210;-65
2022/10/05 07:09:51;;;;;;;14.00;10.48;;;;;;;10.83;64.51;96091.88;4991756;28;20265;-65
2022/10/05 07:12:32;;;;;;;9.52;8.55;;;;;;;10.93;64.07;96090.16;4984225;28;20203;-66
2022/10/05 07:15:17;;;;;;;12.25;9.27;;;;;;;10.99;63.65;96087.00;4990440;28;20251;-66
2022/10/05 07:17:59;;;;;;;12.02;9.23;;;;;;;11.09;63.44;96092.31;5003978;28;20241;-66
2022/10/05 07:20:55;;;;;;;9.45;8.25;;;;;;;11.12;63.35;96083.31;4987185;28;20265;-67
2022/10/05 07:23:39;;;;;;;12.00;9.40;;;;;;;11.27;62.52;96090.75;4990295;28;20196;-66
2022/10/05 07:26:27;;;;;;;12.98;9.25;;;;;;;11.29;62.39;96095.91;4992874;28;20214;-66
2022/10/05 07:29:23;;;;;;;13.00;9.27;;;;;;;11.35;62.65;96090.13;4991934;28;20199;-66
2022/10/05 07:32:25;;;;;;;13.73;9.27;;;;;;;11.47;62.42;96083.81;4986689;28;20258;-66
2022/10/05 07:38:14;;;;;;;11.45;9.07;;;;;;;11.62;61.91;96070.28;4988687;28;20183;-64
2022/10/05 07:40:46;;;;;;;13.05;8.73;;;;;;;11.67;61.58;96073.38;4991419;28;20194;-66
2022/10/05 07:43:15;;;;;;;9.15;8.25;;;;;;;11.78;61.48;96075.91;4991547;28;20220;-66
2022/10/05 07:46:04;;;;;;;10.82;8.93;;;;;;;11.72;61.11;96081.72;4989778;28;20216;-65
2022/10/05 07:48:58;;;;;;;9.85;8.27;;;;;;;11.89;60.68;96078.50;4992002;28;20279;-66
2022/10/05 07:51:30;;;;;;;8.65;7.85;;;;;;;11.79;61.33;96082.84;4991196;28;20198;-67
2022/10/05 07:54:28;;;;;;;9.05;7.18;;;;;;;11.93;60.99;96078.22;5007512;28;20238;-67
2022/10/05 07:57:13;;;;;;;7.43;6.63;;;;;;;12.12;59.86;96079.09;4993307;28;20206;-67
2022/10/05 07:59:44;;;;;;;10.85;8.32;;;;;;;12.13;60.49;96085.19;5007925;28;20202;-66
2022/10/05 08:02:22;;;;;;;10.25;8.80;;;;;;;11.99;60.75;96085.56;4995871;28;20350;-67
2022/10/05 08:05:02;;;;;;;10.95;9.00;;;;;;;12.11;60.87;96095.06;4992320;28;20197;-65
2022/10/05 08:07:32;;;;;;;14.05;9.25;;;;;;;12.25;60.37;96092.03;4995684;28;20199;-64
2022/10/05 08:10:28;;;;;;;12.43;8.95;;;;;;;12.24;60.43;96089.50;4994224;28;20281;-64
2022/10/05 08:13:06;;;;;;;12.55;9.00;;;;;;;12.39;60.16;96090.81;4995692;28;20211;-65
2022/10/05 08:15:41;;;;;;;10.95;9.15;;;;;;;12.53;59.71;96092.19;4992137;28;20233;-65
2022/10/05 08:18:20;;;;;;;9.93;8.93;;;;;;;12.54;58.90;96091.25;4984600;28;20214;-64
2022/10/05 08:20:55;;;;;;;11.50;8.40;;;;;;;12.57;58.85;96098.88;4995779;28;20199;-64
2022/10/05 08:23:22;;;;;;;12.90;8.93;;;;;;;12.53;58.98;96100.13;4977137;28;20190;-65
2022/10/05 08:26:04;;;;;;;9.25;8.27;;;;;;;12.55;59.06;96100.81;5014412;28;20206;-64
2022/10/05 08:28:32;;;;;;;10.90;9.07;;;;;;;12.51;59.68;96094.13;4993956;28;20187;-64
2022/10/05 08:31:15;;;;;;;8.63;7.80;;;;;;;12.58;59.60;96108.47;5007925;28;20213;-64
2022/10/05 08:34:16;;;;;;;8.98;7.15;;;;;;;12.54;59.26;96105.28;5024211;28;20307;-65
2022/10/05 08:36:59;;;;;;;7.85;6.65;;;;;;;12.84;57.37;96102.66;5031089;28;20200;-67
2022/10/05 08:39:29;;;;;;;9.23;6.78;;;;;;;12.84;57.40;96097.38;5023930;28;20240;-65
2022/10/05 08:42:09;;;;;;;7.43;6.10;;;;;;;13.04;56.77;96104.28;5010194;28;20281;-65
2022/10/05 08:44:47;;;;;;;9.85;6.25;;;;;;;13.18;57.40;96098.59;5009740;28;20209;-66
2022/10/05 08:47:30;;;;;;;6.38;5.88;;;;;;;13.24;56.49;96098.03;5012560;28;20198;-66
2022/10/05 08:50:06;;;;;;;9.43;6.15;;;;;;;13.39;55.77;96097.59;5020385;28;20186;-66
2022/10/05 08:53:11;;;;;;;7.70;5.43;;;;;;;13.36;55.11;96095.25;5011580;28;20279;-65
2022/10/05 08:55:36;;;;;;;7.10;6.07;;;;;;;13.36;55.68;96092.59;5016815;28;20205;-64
2022/10/05 08:58:41;;;;;;;11.63;5.72;;;;;;;13.52;54.46;96086.72;5014394;28;20194;-65
2022/10/05 09:01:25;;;;;;;7.70;5.75;;;;;;;13.66;54.43;96096.84;5032160;28;20198;-65
2022/10/05 09:04:28;;;;;;;6.68;4.72;;;;;;;13.89;53.07;96095.47;5014065;28;20248;-65
2022/10/05 09:07:09;;;;;;;4.95;4.55;;;;;;;13.89;53.04;96099.94;5026600;28;20205;-64
2022/10/05 09:09:41;;;;;;;5.95;4.97;;;;;;;13.98;52.75;96099.09;5025761;28;20186;-64
2022/10/05 09:12:24;;;;;;;6.53;4.60;;;;;;;13.85;52.84;96080.91;5016192;28;20267;-64
2022/10/05 09:15:08;;;;;;;4.63;4.18;;;;;;;14.08;52.09;96102.50;5028475;28;20197;-67
2022/10/05 09:18:06;;;;;;;4.22;3.38;;;;;;;14.21;49.12;96094.22;5031248;28;20182;-66
2022/10/05 09:20:58;;;;;;;3.95;2.72;;;;;;;14.22;49.14;96093.25;5025461;28;20220;-66
2022/10/05 09:23:45;;;;;;;4.25;2.47;;;;;;;14.44;47.18;96093.81;5035338;28;20186;-68
2022/10/05 09:26:43;;;;;;;4.95;2.92;;;;;;;14.28;47.74;96092.66;5032633;28;20280;-68
2022/10/05 09:29:52;;;;;;;4.15;2.30;;;;;;;14.35;45.40;96092.88;5033324;28;20186;-67
2022/10/05 09:32:54;;;;;;;3.85;2.35;;;;;;;14.39;45.57;96093.44;5041825;28;20264;-67
2022/10/05 09:35:59;;;;;;;3.33;2.40;;;;;;;14.39;46.51;96094.25;5011526;28;20222;-67
2022/10/05 09:38:55;;;;;;;3.13;1.98;;;;;;;14.60;45.74;96098.50;5011537;28;20201;-66
2022/10/05 09:41:38;;;;;;;2.85;2.15;;;;;;;14.58;45.51;96092.50;5019730;28;20278;-67
2022/10/05 09:44:19;;;;;;;2.63;2.13;;;;;;;14.70;45.30;96096.59;5027231;28;20181;-66
2022/10/05 09:46:50;;;;;;;4.03;2.28;;;;;;;14.94;44.90;96099.47;5019772;28;20289;-66
2022/10/05 09:49:32;;;;;;;3.35;2.17;;;;;;;15.18;43.57;96096.19;5003040;28;20194;-64
2022/10/05 09:52:04;;;;;;;3.17;1.80;;;;;;;15.22;44.92;96097.53;5024534;28;20198;-63
2022/10/05 09:55:00;;;;;;;3.33;1.90;;;;;;;15.21;44.37;96101.19;5021486;28;20280;-65
2022/10/05 09:57:47;;;;;;;3.00;1.90;;;;;;;15.14;42.68;96099.31;4988282;28;20360;-63
2022/10/05 10:00:33;;;;;;;3.90;2.13;;;;;;;15.40;42.59;96094.88;4993908;28;20222;-61
2022/10/05 10:03:05;;;;;;;5.10;2.20;;;;;;;15.61;43.92;96098.94;5010986;28;20191;-66
2022/10/05 10:05:33;;;;;;;3.83;2.40;;;;;;;15.90;43.96;96089.88;5010481;28;20209;-67
2022/10/05 10:08:13;;;;;;;3.72;2.17;;;;;;;16.06;42.45;96101.41;5006866;28;20331;-67
2022/10/05 10:10:42;;;;;;;3.85;2.63;;;;;;;16.02;41.30;96099.22;4994857;28;20207;-67
2022/10/05 10:13:22;;;;;;;3.83;2.25;;;;;;;16.10;41.87;96094.78;4988057;28;20519;-66
2022/10/05 10:16:00;;;;;;;4.30;1.80;;;;;;;16.24;40.74;96085.38;4987212;28;20179;-67
2022/10/05 10:18:29;;;;;;;3.55;1.63;;;;;;;16.38;41.70;96093.72;4994163;28;20195;-66
2022/10/05 10:21:22;;;;;;;2.28;1.52;;;;;;;16.64;41.17;96085.66;4988810;28;20281;-66
2022/10/05 10:23:59;;;;;;;4.85;1.75;;;;;;;16.78;40.46;96092.19;4991900;28;20262;-68
2022/10/05 10:27:06;;;;;;;2.08;1.42;;;;;;;16.90;40.41;96089.03;4984220;28;20187;-68
2022/10/05 10:29:50;;;;;;;2.85;1.88;;;;;;;16.89;39.89;96092.72;4983080;28;20215;-63
2022/10/05 10:32:21;;;;;;;2.00;1.73;;;;;;;17.00;40.72;96094.22;4987300;28;20246;-64
2022/10/05 10:34:58;;;;;;;2.65;1.88;;;;;;;15.79;38.61;96078.53;4988094;28;20199;-64
2022/10/05 10:37:51;;;;;;;4.57;2.17;;;;;;;16.27;37.70;96079.75;4967145;28;20399;-63
2022/10/05 10:40:28;;;;;;;2.05;1.70;;;;;;;16.38;37.72;96072.47;4989470;28;20180;-64
2022/10/05 10:43:13;;;;;;;2.60;1.70;;;;;;;16.83;37.66;96073.91;4986975;28;20188;-63
2022/10/05 10:46:06;;;;;;;3.47;1.25;;;;;;;16.97;36.70;96073.25;4986654;28;20196;-65
2022/10/05 10:48:53;;;;;;;2.63;1.63;;;;;;;17.05;36.86;96075.09;4987267;28;20192;-65
2022/10/05 10:51:38;;;;;;;2.53;2.25;;;;;;;17.25;36.28;96057.81;5007078;28;20245;-65
2022/10/05 10:54:35;;;;;;;1.88;1.65;;;;;;;17.38;36.90;96060.78;5003148;28;20221;-65
2022/10/05 10:57:15;;;;;;;2.75;1.50;;;;;;;17.44;35.66;96051.31;5028742;28;20209;-65
2022/10/05 10:59:59;;;;;;;2.65;1.40;;;;;;;17.13;36.73;96043.19;5029437;28;20178;-66
2022/10/05 11:02:27;;;;;;;2.58;1.65;;;;;;;17.03;37.27;96056.69;5022948;28;20273;-66
2022/10/05 11:05:02;;;;;;;3.20;1.83;;;;;;;17.22;37.19;96049.38;5031774;28;20190;-65
2022/10/05 11:07:49;;;;;;;2.08;1.30;;;;;;;17.40;37.24;96039.34;5030620;28;20181;-65
2022/10/05 11:10:33;;;;;;;3.20;1.38;;;;;;;17.71;34.76;96039.44;5031615;28;20204;-65
2022/10/05 11:13:20;;;;;;;1.42;1.10;;;;;;;17.91;34.59;96034.59;5027399;28;20206;-66
2022/10/05 11:16:11;;;;;;;3.25;1.67;;;;;;;18.02;33.89;96031.56;5034909;28;20193;-65
2022/10/05 11:19:21;;;;;;;1.95;1.17;;;;;;;17.74;32.60;96023.13;5029538;28;20186;-67
2022/10/05 11:22:06;;;;;;;2.75;0.88;;;;;;;16.88;30.66;96021.13;5042101;28;20182;-64
2022/10/05 11:24:53;;;;;;;2.00;1.10;;;;;;;17.58;31.46;96024.00;5026604;28;20190;-65
2022/10/05 11:27:34;;;;;;;1.75;1.10;;;;;;;18.12;31.67;96019.84;5035962;28;20193;-65
2022/10/05 11:30:24;;;;;;;1.20;1.10;;;;;;;18.40;32.37;96021.03;5029221;28;20226;-68
2022/10/05 11:32:49;;;;;;;1.20;1.02;;;;;;;18.65;31.34;96026.19;5028866;28;20356;-66
2022/10/05 11:35:32;;;;;;;2.38;1.10;;;;;;;18.76;31.01;96017.81;5030362;28;20253;-64
2022/10/05 11:38:13;;;;;;;1.92;1.17;;;;;;;18.85;31.08;96014.09;5029671;28;20592;-65
2022/10/05 11:40:46;;;;;;;3.17;1.30;;;;;;;18.79;29.78;96013.97;5027743;28;20225;-66
2022/10/05 11:43:37;;;;;;;1.95;1.20;;;;;;;19.24;30.14;96005.06;5035698;28;20178;-63
2022/10/05 11:46:40;;;;;;;1.15;1.05;;;;;;;19.42;30.24;96001.25;5031739;28;20214;-63
2022/10/05 11:49:14;;;;;;;2.08;1.17;;;;;;;19.58;28.68;95995.75;5029110;28;20188;-65
2022/10/05 11:52:05;;;;;;;3.22;1.30;;;;;;;19.81;29.32;96001.84;5031175;28;20196;-65
2022/10/05 11:54:50;;;;;;;2.17;1.27;;;;;;;19.38;30.44;95995.47;5034966;28;20313;-64
2022/10/05 11:57:27;;;;;;;5.63;1.67;;;;;;;19.85;30.97;95993.47;5028327;28;20229;-64
2022/10/05 12:00:11;;;;;;;1.30;1.00;;;;;;;20.18;29.70;95985.84;5028968;28;20187;-63
2022/10/05 12:02:36;;;;;;;2.38;0.95;;;;;;;20.16;27.51;95974.56;5039358;28;20174;-63
2022/10/05 12:05:26;;;;;;;1.85;0.95;;;;;;;20.16;28.80;95977.22;5034475;28;20186;-64
2022/10/05 12:07:51;;;;;;;2.58;0.90;;;;;;;20.39;28.62;95982.38;5034015;28;20194;-66
2022/10/05 12:10:38;;;;;;;1.58;1.00;;;;;;;20.74;28.32;95988.72;5033895;28;20257;-66
2022/10/05 12:13:12;;;;;;;1.00;0.90;;;;;;;21.09;28.09;95972.78;5028162;28;20202;-65
2022/10/05 12:16:03;;;;;;;3.25;1.63;;;;;;;21.64;26.41;95986.38;5030728;28;20189;-65
2022/10/05 12:18:29;;;;;;;1.58;1.30;;;;;;;27.11;19.53;95979.06;5020948;28;20633;-63
2022/10/05 12:21:26;;;;;;;2.00;1.40;;;;;;;34.28;12.80;95982.34;5034555;28;20284;-66
2022/10/05 12:24:11;;;;;;;3.42;2.00;;;;;;;36.92;9.75;95978.69;5041151;28;20198;-66
2022/10/05 12:26:40;;;;;;;2.58;1.85;;;;;;;39.16;8.21;95979.22;5027318;28;20183;-65
2022/10/05 12:29:50;;;;;;;2.10;1.70;;;;;;;40.19;7.52;95991.22;5030968;28;20209;-65
2022/10/05 12:32:23;;;;;;;1.92;1.40;;;;;;;39.66;8.23;95986.56;5007315;28;20287;-66
2022/10/05 12:35:21;;;;;;;1.30;1.20;;;;;;;43.98;5.25;95994.69;4994808;28;20214;-66
2022/10/05 12:38:06;;;;;;;2.10;1.50;;;;;;;44.20;4.78;95996.22;5009930;28;20198;-66
2022/10/05 12:40:49;;;;;;;1.70;1.55;;;;;;;44.92;4.56;95996.56;4997410;28;20244;-67
2022/10/05 12:43:31;;;;;;;2.15;1.38;;;;;;;46.71;3.65;95989.59;4993384;28;20194;-67
2022/10/05 12:46:00;;;;;;;2.22;1.80;;;;;;;45.47;4.61;95988.66;4999937;28;20202;-67